Time;durP1;ratioP1;P1;durP2;ratioP2;P2;SDS_P1;SDS_P2;PMS_P1;PMS_P2;Temp;Humidity;BMP_temperature;BMP_pressure;BME280_temperature;BME280_humidity;BME280_pressure;Samples;Min_cycle;Max_cycle;Signal;HPM_P1;HPM_P2
2023/05/17 00:01:43;;;;;;;;;;;8.70;1.00;;;;;;5111293;27;19923;-84
2023/05/17 00:04:09;;;;;;;;;;;8.60;1.00;;;;;;5154190;27;20264;-83
2023/05/17 00:06:35;;;;;;;;;;;8.50;1.00;;;;;;5133387;27;20124;-84
2023/05/17 00:09:00;;;;;;;;;;;8.40;1.00;;;;;;5124286;27;20288;-84
2023/05/17 00:11:26;;;;;;;;;;;8.30;1.00;;;;;;5142900;27;19923;-83
2023/05/17 00:13:51;;;;;;;;;;;8.10;1.00;;;;;;5153647;27;20009;-84
2023/05/17 00:16:17;;;;;;;;;;;8.00;1.00;;;;;;5144640;27;19934;-84
2023/05/17 00:18:42;;;;;;;;;;;7.90;1.00;;;;;;5121382;27;20384;-84
2023/05/17 00:21:08;;;;;;;;;;;7.90;1.00;;;;;;5142076;27;19923;-84
2023/05/17 00:23:33;;;;;;;;;;;7.80;1.00;;;;;;5124085;27;20363;-84
2023/05/17 00:25:59;;;;;;;;;;;7.70;1.00;;;;;;5148257;27;19923;-84
2023/05/17 00:28:25;;;;;;;;;;;7.60;1.00;;;;;;5144584;27;19938;-83
2023/05/17 00:30:50;;;;;;;;;;;7.60;1.00;;;;;;5129561;27;20290;-84
2023/05/17 00:33:16;;;;;;;;;;;7.50;1.00;;;;;;5148775;27;19926;-84
2023/05/17 00:35:42;;;;;;;;;;;7.40;6.70;;;;;;5151174;27;19934;-84
2023/05/17 00:38:07;;;;;;;;;;;7.40;31.60;;;;;;5139882;27;20275;-84
2023/05/17 00:40:33;;;;;;;;;;;7.30;26.40;;;;;;5144475;27;19923;-84
2023/05/17 00:42:58;;;;;;;;;;;7.30;99.90;;;;;;5126584;27;19970;-84
2023/05/17 00:45:24;;;;;;;;;;;7.20;73.30;;;;;;5145364;27;20019;-84
2023/05/17 00:47:49;;;;;;;;;;;7.20;80.10;;;;;;5141418;27;20171;-83
2023/05/17 00:50:15;;;;;;;;;;;7.10;99.90;;;;;;5137382;27;19971;-84
2023/05/17 00:52:41;;;;;;;;;;;7.10;99.90;;;;;;5150532;27;19926;-84
2023/05/17 00:55:06;;;;;;;;;;;7.20;99.90;;;;;;5126774;27;20017;-84
2023/05/17 00:57:32;;;;;;;;;;;7.10;99.90;;;;;;5119299;27;19995;-83
2023/05/17 00:59:58;;;;;;;;;;;7.10;99.90;;;;;;5125499;27;20022;-84
2023/05/17 01:02:24;;;;;;;;;;;7.20;99.90;;;;;;5127375;27;19931;-84
2023/05/17 01:04:49;;;;;;;;;;;7.20;99.90;;;;;;5149469;27;19922;-83
2023/05/17 01:07:16;;;;;;;;;;;7.30;99.90;;;;;;5129638;27;20029;-84
2023/05/17 01:09:42;;;;;;;;;;;7.40;99.90;;;;;;5130631;27;20013;-84
2023/05/17 01:12:08;;;;;;;;;;;7.50;99.90;;;;;;5139184;27;20009;-84
2023/05/17 01:14:52;;;;;;;;;;;7.60;99.90;;;;;;5148742;27;19923;-85
2023/05/17 01:17:38;;;;;;;;;;;7.70;99.90;;;;;;5137672;27;19927;-84
2023/05/17 01:20:19;;;;;;;;;;;7.90;99.90;;;;;;5124290;27;19923;-84
2023/05/17 01:22:47;;;;;;;;;;;7.90;99.90;;;;;;5125384;27;19927;-84
2023/05/17 01:25:27;;;;;;;;;;;8.00;99.90;;;;;;5165979;27;19934;-84
2023/05/17 01:27:54;;;;;;;;;;;8.10;99.90;;;;;;5136826;27;19930;-84
2023/05/17 01:30:21;;;;;;;;;;;8.10;99.90;;;;;;5146218;27;20659;-84
2023/05/17 01:32:47;;;;;;;;;;;8.20;99.90;;;;;;5151308;27;19982;-85
2023/05/17 01:35:12;;;;;;;;;;;8.20;88.50;;;;;;5129570;27;20062;-84
2023/05/17 01:37:38;;;;;;;;;;;8.20;85.00;;;;;;5130091;27;19957;-84
2023/05/17 01:40:06;;;;;;;;;;;8.20;62.70;;;;;;5152082;27;19929;-83
2023/05/17 01:42:32;;;;;;;;;;;8.20;93.40;;;;;;5148756;27;19995;-84
2023/05/17 01:45:02;;;;;;;;;;;8.20;20.30;;;;;;5145072;27;20328;-83
2023/05/17 01:47:46;;;;;;;;;;;8.10;1.00;;;;;;5153714;27;19927;-84
2023/05/17 01:50:14;;;;;;;;;;;8.00;25.40;;;;;;5135712;27;19958;-83
2023/05/17 01:52:43;;;;;;;;;;;8.00;71.50;;;;;;5122706;27;20384;-84
2023/05/17 01:55:20;;;;;;;;;;;7.80;39.80;;;;;;5140053;27;19945;-83
2023/05/17 01:57:47;;;;;;;;;;;7.70;55.80;;;;;;5141970;27;19971;-84
2023/05/17 02:00:13;;;;;;;;;;;7.60;98.30;;;;;;5144717;27;19923;-83
2023/05/17 02:02:39;;;;;;;;;;;7.50;90.70;;;;;;5117753;27;20264;-83
2023/05/17 02:05:05;;;;;;;;;;;7.40;70.30;;;;;;5141458;27;19973;-84
2023/05/17 02:07:31;;;;;;;;;;;7.30;99.90;;;;;;5140554;27;19931;-84
2023/05/17 02:09:56;;;;;;;;;;;7.20;99.90;;;;;;5122634;27;19974;-83
2023/05/17 02:12:22;;;;;;;;;;;7.20;99.90;;;;;;5152703;27;20010;-84
2023/05/17 02:14:47;;;;;;;;;;;7.10;99.90;;;;;;5133823;27;19927;-84
2023/05/17 02:17:13;;;;;;;;;;;7.00;99.90;;;;;;5141413;27;19967;-83
2023/05/17 02:19:39;;;;;;;;;;;7.00;99.90;;;;;;5152171;27;19933;-84
2023/05/17 02:22:04;;;;;;;;;;;6.90;99.90;;;;;;5133705;27;19923;-84
2023/05/17 02:24:30;;;;;;;;;;;6.80;99.90;;;;;;5144468;27;19979;-83
2023/05/17 02:26:55;;;;;;;;;;;6.80;99.90;;;;;;5127729;27;19927;-83
2023/05/17 02:29:21;;;;;;;;;;;6.70;99.90;;;;;;5147730;27;20004;-83
2023/05/17 02:31:46;;;;;;;;;;;6.70;99.90;;;;;;5147401;27;19927;-83
2023/05/17 02:34:12;;;;;;;;;;;6.70;99.90;;;;;;5122906;27;19923;-83
2023/05/17 02:36:39;;;;;;;;;;;6.60;99.90;;;;;;5120352;27;19923;-83
2023/05/17 02:39:05;;;;;;;;;;;6.60;99.90;;;;;;5153673;27;19934;-84
2023/05/17 02:41:31;;;;;;;;;;;6.60;99.90;;;;;;5133758;27;19927;-83
2023/05/17 02:43:56;;;;;;;;;;;6.50;99.90;;;;;;5121011;27;20436;-84
2023/05/17 02:46:22;;;;;;;;;;;6.60;99.90;;;;;;5148308;27;19967;-83
2023/05/17 02:48:47;;;;;;;;;;;6.50;99.90;;;;;;5144812;27;20387;-83
2023/05/17 02:51:13;;;;;;;;;;;6.60;99.90;;;;;;5145822;27;20374;-84
2023/05/17 02:53:38;;;;;;;;;;;6.70;99.90;;;;;;5159532;27;19927;-84
2023/05/17 02:56:04;;;;;;;;;;;6.80;99.90;;;;;;5139096;27;20431;-84
2023/05/17 02:58:30;;;;;;;;;;;6.90;99.90;;;;;;5154379;27;19927;-83
2023/05/17 03:00:55;;;;;;;;;;;7.00;99.90;;;;;;5154858;27;19929;-83
2023/05/17 03:03:21;;;;;;;;;;;7.00;99.90;;;;;;5154422;27;19931;-83
2023/05/17 03:05:47;;;;;;;;;;;7.10;99.90;;;;;;5154166;27;20394;-83
2023/05/17 03:08:12;;;;;;;;;;;7.20;99.90;;;;;;5133769;27;19975;-83
2023/05/17 03:10:38;;;;;;;;;;;7.30;99.90;;;;;;5154180;27;19927;-84
2023/05/17 03:13:03;;;;;;;;;;;7.40;99.90;;;;;;5148224;27;19977;-83
2023/05/17 03:15:29;;;;;;;;;;;7.30;99.90;;;;;;5121889;27;19922;-84
2023/05/17 03:17:55;;;;;;;;;;;7.50;99.90;;;;;;5152532;27;19923;-83
2023/05/17 03:20:21;;;;;;;;;;;7.50;99.90;;;;;;5132365;27;19931;-83
2023/05/17 03:22:46;;;;;;;;;;;7.50;99.90;;;;;;5155166;27;19926;-83
2023/05/17 03:25:12;;;;;;;;;;;7.60;99.90;;;;;;5151659;27;20006;-83
2023/05/17 03:27:38;;;;;;;;;;;7.70;99.90;;;;;;5135437;27;19923;-83
2023/05/17 03:30:03;;;;;;;;;;;7.70;99.90;;;;;;5148038;27;20355;-83
2023/05/17 03:32:29;;;;;;;;;;;7.70;99.90;;;;;;5132696;27;19934;-83
2023/05/17 03:34:55;;;;;;;;;;;7.80;99.90;;;;;;5144775;27;19934;-83
2023/05/17 03:37:20;;;;;;;;;;;7.70;99.90;;;;;;5154188;27;19942;-83
2023/05/17 03:39:49;;;;;;;;;;;7.70;99.90;;;;;;5165065;27;20018;-84
2023/05/17 03:42:15;;;;;;;;;;;7.80;99.90;;;;;;5152240;27;20049;-83
2023/05/17 03:44:40;;;;;;;;;;;7.70;99.90;;;;;;5143193;27;19978;-83
2023/05/17 03:47:06;;;;;;;;;;;7.70;99.90;;;;;;5148873;27;19926;-83
2023/05/17 03:49:32;;;;;;;;;;;7.70;99.90;;;;;;5153901;27;19973;-84
2023/05/17 03:51:57;;;;;;;;;;;7.70;99.90;;;;;;5139113;27;19923;-84
2023/05/17 03:54:23;;;;;;;;;;;7.70;99.90;;;;;;5120255;27;20300;-84
2023/05/17 03:56:49;;;;;;;;;;;7.60;99.90;;;;;;5146816;27;19930;-83
2023/05/17 03:59:15;;;;;;;;;;;7.60;95.60;;;;;;5143011;27;20093;-84
2023/05/17 04:01:41;;;;;;;;;;;7.50;90.20;;;;;;5124363;27;20022;-84
2023/05/17 04:04:06;;;;;;;;;;;7.40;86.20;;;;;;5146382;27;19925;-83
2023/05/17 04:06:32;;;;;;;;;;;7.30;72.90;;;;;;5137650;27;20099;-83
2023/05/17 04:08:58;;;;;;;;;;;7.30;66.50;;;;;;5122779;27;19923;-83
2023/05/17 04:11:26;;;;;;;;;;;7.20;65.00;;;;;;5148431;27;19984;-83
2023/05/17 04:13:52;;;;;;;;;;;7.10;50.60;;;;;;5139372;27;19969;-83
2023/05/17 04:16:18;;;;;;;;;;;7.10;21.00;;;;;;5150998;27;20364;-83
2023/05/17 04:18:44;;;;;;;;;;;7.10;11.70;;;;;;5141740;27;19927;-83
2023/05/17 04:21:10;;;;;;;;;;;7.00;1.00;;;;;;5150408;27;19970;-83
2023/05/17 04:23:36;;;;;;;;;;;7.00;1.00;;;;;;5151551;27;20379;-83
2023/05/17 04:26:02;;;;;;;;;;;7.00;1.00;;;;;;5152023;27;19927;-83
2023/05/17 04:28:27;;;;;;;;;;;7.20;1.00;;;;;;5144500;27;19988;-84
2023/05/17 04:30:54;;;;;;;;;;;7.40;1.00;;;;;;5123313;27;19923;-83
2023/05/17 04:33:20;;;;;;;;;;;7.50;1.00;;;;;;5120227;27;19927;-84
2023/05/17 04:35:45;;;;;;;;;;;7.70;99.90;;;;;;5127592;27;19934;-83
2023/05/17 04:38:11;;;;;;;;;;;7.80;99.90;;;;;;5123288;27;20730;-83
2023/05/17 04:40:37;;;;;;;;;;;7.80;99.90;;;;;;5141099;27;20259;-84
2023/05/17 04:43:02;;;;;;;;;;;7.80;99.90;;;;;;5120244;27;19923;-84
2023/05/17 04:45:28;;;;;;;;;;;7.80;99.90;;;;;;5143283;27;20014;-84
2023/05/17 04:47:54;;;;;;;;;;;7.80;99.90;;;;;;5146683;27;19922;-83
2023/05/17 04:50:20;;;;;;;;;;;7.80;99.90;;;;;;5150757;27;19923;-84
2023/05/17 04:52:46;;;;;;;;;;;7.70;99.90;;;;;;5141194;27;20295;-83
2023/05/17 04:55:12;;;;;;;;;;;7.70;99.90;;;;;;5138886;27;19931;-83
2023/05/17 04:57:38;;;;;;;;;;;7.70;99.90;;;;;;5130475;27;20113;-83
2023/05/17 05:00:08;;;;;;;;;;;7.70;99.90;;;;;;5131253;27;19976;-83
2023/05/17 05:02:34;;;;;;;;;;;7.80;99.90;;;;;;5115467;27;19923;-83
2023/05/17 05:05:00;;;;;;;;;;;7.90;99.90;;;;;;5146530;27;20456;-84
2023/05/17 05:07:26;;;;;;;;;;;8.00;99.90;;;;;;5127955;27;19926;-82
2023/05/17 05:09:52;;;;;;;;;;;8.00;99.90;;;;;;5139356;27;20363;-82
2023/05/17 05:12:17;;;;;;;;;;;8.00;96.10;;;;;;5141538;27;20436;-83
2023/05/17 05:14:43;;;;;;;;;;;8.20;99.90;;;;;;5149936;27;19927;-81
2023/05/17 05:17:08;;;;;;;;;;;8.30;87.30;;;;;;5144744;27;19923;-82
2023/05/17 05:19:34;;;;;;;;;;;8.50;91.40;;;;;;5133624;27;19948;-81
2023/05/17 05:22:00;;;;;;;;;;;8.60;47.30;;;;;;5144809;27;19927;-81
2023/05/17 05:24:25;;;;;;;;;;;8.70;1.00;;;;;;5129932;27;19933;-82
2023/05/17 05:26:51;;;;;;;;;;;8.70;18.60;;;;;;5143832;27;19935;-81
2023/05/17 05:29:17;;;;;;;;;;;8.60;1.00;;;;;;5120135;27;19935;-77
2023/05/17 05:31:42;;;;;;;;;;;8.70;1.00;;;;;;5139303;27;19971;-81
2023/05/17 05:34:09;;;;;;;;;;;8.80;20.30;;;;;;5150671;27;19989;-81
2023/05/17 05:36:34;;;;;;;;;;;8.90;1.00;;;;;;5127869;27;19923;-82
2023/05/17 05:39:00;;;;;;;;;;;9.10;1.00;;;;;;5114465;27;19933;-81
2023/05/17 05:41:25;;;;;;;;;;;9.10;1.00;;;;;;5148143;27;19927;-84
2023/05/17 05:43:51;;;;;;;;;;;9.10;1.00;;;;;;5142267;27;19932;-83
2023/05/17 05:46:17;;;;;;;;;;;9.10;1.00;;;;;;5145745;27;19979;-83
2023/05/17 05:48:43;;;;;;;;;;;9.00;1.00;;;;;;5143082;27;19929;-78
2023/05/17 05:51:09;;;;;;;;;;;8.90;1.00;;;;;;5133859;27;20364;-80
2023/05/17 05:53:35;;;;;;;;;;;8.90;2.20;;;;;;5137264;27;19968;-81
2023/05/17 05:56:01;;;;;;;;;;;9.10;1.00;;;;;;5132385;27;19931;-80
2023/05/17 05:58:27;;;;;;;;;;;9.30;1.00;;;;;;5143133;27;19927;-83
2023/05/17 06:00:53;;;;;;;;;;;9.50;1.00;;;;;;5149183;27;19934;-80
2023/05/17 06:03:18;;;;;;;;;;;9.70;1.00;;;;;;5149374;27;19923;-81
2023/05/17 06:05:44;;;;;;;;;;;9.80;1.00;;;;;;5140423;27;19924;-80
2023/05/17 06:08:10;;;;;;;;;;;9.90;1.00;;;;;;5142917;27;20014;-80
2023/05/17 06:10:35;;;;;;;;;;;10.00;1.00;;;;;;5146468;27;20380;-80
2023/05/17 06:13:01;;;;;;;;;;;10.10;1.00;;;;;;5120590;27;19930;-80
2023/05/17 06:15:27;;;;;;;;;;;10.10;1.00;;;;;;5147107;27;20006;-83
2023/05/17 06:17:52;;;;;;;;;;;10.10;1.00;;;;;;5132597;27;19935;-82
2023/05/17 06:20:18;;;;;;;;;;;10.20;1.00;;;;;;5122942;27;19928;-81
2023/05/17 06:22:44;;;;;;;;;;;10.30;1.00;;;;;;5143925;27;20311;-81
2023/05/17 06:25:12;;;;;;;;;;;10.40;1.00;;;;;;5142084;27;20002;-81
2023/05/17 06:27:38;;;;;;;;;;;10.40;1.00;;;;;;5145148;27;19923;-82
2023/05/17 06:30:04;;;;;;;;;;;10.50;1.00;;;;;;5128304;27;19923;-82
2023/05/17 06:32:30;;;;;;;;;;;10.60;1.00;;;;;;5133420;27;19930;-83
2023/05/17 06:34:55;;;;;;;;;;;10.70;1.00;;;;;;5152351;27;20009;-83
2023/05/17 06:37:21;;;;;;;;;;;10.80;1.00;;;;;;5146326;27;19984;-82
2023/05/17 06:39:47;;;;;;;;;;;11.00;1.00;;;;;;5133827;27;20532;-82
2023/05/17 06:42:12;;;;;;;;;;;11.10;1.00;;;;;;5150848;27;19933;-81
2023/05/17 06:44:38;;;;;;;;;;;11.10;1.00;;;;;;5134678;27;19927;-82
2023/05/17 06:47:03;;;;;;;;;;;11.10;1.00;;;;;;5147416;27;19923;-82
2023/05/17 06:49:29;;;;;;;;;;;10.90;1.00;;;;;;5132267;27;19923;-82
2023/05/17 06:52:01;;;;;;;;;;;10.70;1.00;;;;;;5141582;27;19927;-82
2023/05/17 06:54:26;;;;;;;;;;;10.70;1.00;;;;;;5126899;27;20688;-82
2023/05/17 06:56:52;;;;;;;;;;;10.90;1.00;;;;;;5149708;27;19935;-82
2023/05/17 06:59:17;;;;;;;;;;;11.00;1.00;;;;;;5125074;27;19932;-82
2023/05/17 07:01:43;;;;;;;;;;;11.30;1.00;;;;;;5152910;27;19927;-82
2023/05/17 07:04:09;;;;;;;;;;;11.50;1.00;;;;;;5144641;27;19923;-82
2023/05/17 07:06:34;;;;;;;;;;;11.60;1.00;;;;;;5129663;27;19923;-82
2023/05/17 07:09:00;;;;;;;;;;;11.60;1.00;;;;;;5143556;27;20143;-82
2023/05/17 07:11:25;;;;;;;;;;;11.50;1.00;;;;;;5152483;27;19923;-82
2023/05/17 07:13:51;;;;;;;;;;;11.50;1.00;;;;;;5140478;27;20677;-83
2023/05/17 07:16:17;;;;;;;;;;;11.40;1.00;;;;;;5125288;27;19935;-82
2023/05/17 07:18:42;;;;;;;;;;;11.30;1.00;;;;;;5122717;27;19931;-82
2023/05/17 07:21:08;;;;;;;;;;;11.20;1.00;;;;;;5154411;27;19930;-82
2023/05/17 07:23:33;;;;;;;;;;;11.20;1.00;;;;;;5145481;27;19927;-82
2023/05/17 07:25:59;;;;;;;;;;;11.20;1.00;;;;;;5110587;27;19953;-82
2023/05/17 07:28:25;;;;;;;;;;;11.20;1.00;;;;;;5138766;27;19924;-82
2023/05/17 07:30:50;;;;;;;;;;;11.20;1.00;;;;;;5144014;27;19932;-81
2023/05/17 07:33:16;;;;;;;;;;;11.10;1.00;;;;;;5146390;27;19931;-81
2023/05/17 07:35:41;;;;;;;;;;;11.10;1.00;;;;;;5145877;27;19927;-82
2023/05/17 07:38:09;;;;;;;;;;;11.20;1.00;;;;;;5148401;27;19927;-82
2023/05/17 07:40:35;;;;;;;;;;;11.30;1.00;;;;;;5148892;27;19924;-82
2023/05/17 07:43:00;;;;;;;;;;;11.30;1.00;;;;;;5123418;27;20347;-82
2023/05/17 07:45:26;;;;;;;;;;;11.50;1.00;;;;;;5130421;27;19938;-82
2023/05/17 07:47:51;;;;;;;;;;;11.70;1.00;;;;;;5138874;27;19927;-82
2023/05/17 07:50:17;;;;;;;;;;;11.80;1.00;;;;;;5136607;27;19927;-82
2023/05/17 07:52:42;;;;;;;;;;;12.00;1.00;;;;;;5137611;27;19924;-82
2023/05/17 07:55:08;;;;;;;;;;;12.10;1.00;;;;;;5151361;27;19923;-82
2023/05/17 07:57:34;;;;;;;;;;;12.10;1.00;;;;;;5142197;27;19923;-81
2023/05/17 07:59:59;;;;;;;;;;;12.10;1.00;;;;;;5138351;27;19970;-81
2023/05/17 08:02:25;;;;;;;;;;;12.20;1.00;;;;;;5150120;27;19926;-82
2023/05/17 08:04:52;;;;;;;;;;;12.40;1.00;;;;;;5145420;27;19989;-82
2023/05/17 08:07:17;;;;;;;;;;;12.40;1.00;;;;;;5132217;27;19978;-81
2023/05/17 08:09:44;;;;;;;;;;;12.40;1.00;;;;;;5104604;27;20334;-82
2023/05/17 08:12:09;;;;;;;;;;;12.50;1.00;;;;;;5148583;27;20336;-82
2023/05/17 08:14:35;;;;;;;;;;;12.50;1.00;;;;;;5152317;27;19933;-82
2023/05/17 08:17:01;;;;;;;;;;;12.60;1.00;;;;;;5135271;27;20664;-81
2023/05/17 08:19:27;;;;;;;;;;;12.60;1.00;;;;;;5137467;27;19923;-82
2023/05/17 08:21:52;;;;;;;;;;;12.70;1.00;;;;;;5154754;27;19926;-83
2023/05/17 08:24:18;;;;;;;;;;;12.70;1.00;;;;;;5133232;27;19927;-80
2023/05/17 08:26:44;;;;;;;;;;;12.70;1.00;;;;;;5146790;27;20288;-81
2023/05/17 08:29:09;;;;;;;;;;;12.70;1.00;;;;;;5138383;27;19972;-76
2023/05/17 08:31:35;;;;;;;;;;;13.10;1.00;;;;;;5131566;27;19975;-76
2023/05/17 08:34:00;;;;;;;;;;;13.60;1.00;;;;;;5164984;27;20026;-80
2023/05/17 08:36:27;;;;;;;;;;;14.00;1.00;;;;;;5144953;27;20367;-81
2023/05/17 08:38:52;;;;;;;;;;;14.30;1.00;;;;;;5135919;27;19927;-80
2023/05/17 08:41:19;;;;;;;;;;;14.30;1.00;;;;;;5153210;27;19947;-81
2023/05/17 08:43:46;;;;;;;;;;;14.40;1.00;;;;;;5136242;27;20009;-82
2023/05/17 08:46:12;;;;;;;;;;;14.00;1.00;;;;;;5134999;27;19930;-81
2023/05/17 08:48:42;;;;;;;;;;;13.80;1.00;;;;;;5115007;27;21455;-81
2023/05/17 08:51:10;;;;;;;;;;;13.60;1.00;;;;;;5136089;27;20391;-82
2023/05/17 08:53:36;;;;;;;;;;;13.50;1.00;;;;;;5152891;27;19926;-82
2023/05/17 08:56:04;;;;;;;;;;;13.50;1.00;;;;;;5131782;27;19927;-82
2023/05/17 08:58:32;;;;;;;;;;;13.80;1.00;;;;;;5141769;27;20380;-82
2023/05/17 09:00:58;;;;;;;;;;;14.00;1.00;;;;;;5152984;27;19927;-82
2023/05/17 09:03:24;;;;;;;;;;;14.20;1.00;;;;;;5126037;27;20401;-81
2023/05/17 09:05:53;;;;;;;;;;;14.40;1.00;;;;;;5153490;27;19926;-82
2023/05/17 09:08:20;;;;;;;;;;;14.50;1.00;;;;;;5147999;27;19935;-81
2023/05/17 09:10:46;;;;;;;;;;;14.10;1.00;;;;;;5135591;27;19927;-82
2023/05/17 09:13:11;;;;;;;;;;;13.70;1.00;;;;;;5159758;27;19977;-81
2023/05/17 09:15:37;;;;;;;;;;;13.20;1.00;;;;;;5154594;27;19952;-82
2023/05/17 09:18:03;;;;;;;;;;;13.00;1.00;;;;;;5150584;27;19929;-82
2023/05/17 09:20:35;;;;;;;;;;;12.70;1.00;;;;;;5145373;27;20314;-81
2023/05/17 09:23:08;;;;;;;;;;;12.70;1.00;;;;;;5153729;27;20402;-82
2023/05/17 09:25:34;;;;;;;;;;;12.80;1.00;;;;;;5148510;27;19946;-81
2023/05/17 09:28:06;;;;;;;;;;;13.00;1.00;;;;;;5160705;27;19930;-81
2023/05/17 09:30:33;;;;;;;;;;;13.50;1.00;;;;;;5133604;27;20026;-81
2023/05/17 09:33:08;;;;;;;;;;;15.20;1.00;;;;;;5126937;27;20431;-81
2023/05/17 09:35:34;;;;;;;;;;;16.60;1.00;;;;;;5147638;27;19961;-82
2023/05/17 09:38:07;;;;;;;;;;;17.70;1.00;;;;;;5106439;27;19927;-82
2023/05/17 09:40:33;;;;;;;;;;;17.60;1.00;;;;;;5134812;27;20401;-81
2023/05/17 09:42:59;;;;;;;;;;;16.90;1.00;;;;;;5146312;27;20006;-80
2023/05/17 09:45:25;;;;;;;;;;;16.30;1.00;;;;;;5139192;27;19923;-81
2023/05/17 09:47:51;;;;;;;;;;;15.70;1.00;;;;;;5144104;27;19938;-81
2023/05/17 09:50:20;;;;;;;;;;;15.40;1.00;;;;;;5151537;27;19938;-81
2023/05/17 09:52:46;;;;;;;;;;;15.40;1.00;;;;;;5129330;27;20395;-81
2023/05/17 09:55:12;;;;;;;;;;;15.40;1.00;;;;;;5130704;27;19927;-81
2023/05/17 09:57:38;;;;;;;;;;;16.10;1.00;;;;;;5121766;27;19927;-81
2023/05/17 10:00:10;;;;;;;;;;;16.30;1.00;;;;;;5139343;27;20319;-81
2023/05/17 10:02:36;;;;;;;;;;;15.90;1.00;;;;;;5143962;27;19926;-80
2023/05/17 10:05:04;;;;;;;;;;;15.40;1.00;;;;;;5151057;27;19927;-81
2023/05/17 10:07:30;;;;;;;;;;;15.60;1.00;;;;;;5175629;27;19923;-80
2023/05/17 10:09:57;;;;;;;;;;;17.20;1.00;;;;;;5127955;27;20009;-84
2023/05/17 10:12:24;;;;;;;;;;;18.90;1.00;;;;;;5145646;27;20746;-81
2023/05/17 10:14:51;;;;;;;;;;;19.70;1.00;;;;;;5149196;27;19923;-80
2023/05/17 10:17:18;;;;;;;;;;;20.00;1.00;;;;;;5156706;27;20033;-80
2023/05/17 10:19:44;;;;;;;;;;;20.60;1.00;;;;;;5157246;27;19927;-80
2023/05/17 10:22:10;;;;;;;;;;;21.40;1.00;;;;;;5141051;27;19930;-80
2023/05/17 10:24:36;;;;;;;;;;;21.70;1.00;;;;;;5167997;27;19966;-81
2023/05/17 10:27:02;;;;;;;;;;;22.10;1.00;;;;;;5153839;27;19937;-80
2023/05/17 10:29:30;;;;;;;;;;;22.70;1.00;;;;;;5146886;27;20282;-80
2023/05/17 10:31:56;;;;;;;;;;;23.40;1.00;;;;;;5155477;27;20011;-81
2023/05/17 10:34:24;;;;;;;;;;;23.40;1.00;;;;;;5165639;27;19926;-81
2023/05/17 10:36:50;;;;;;;;;;;22.60;1.00;;;;;;5154786;27;20001;-80
2023/05/17 10:39:17;;;;;;;;;;;22.00;1.00;;;;;;5130786;27;19927;-80
2023/05/17 10:41:43;;;;;;;;;;;20.80;1.00;;;;;;5146614;27;19927;-81
2023/05/17 10:44:11;;;;;;;;;;;20.60;1.00;;;;;;5142960;27;19923;-81
2023/05/17 10:46:38;;;;;;;;;;;21.10;1.00;;;;;;5168544;27;19965;-83
2023/05/17 10:49:03;;;;;;;;;;;20.30;1.00;;;;;;5152606;27;19923;-80
2023/05/17 10:51:30;;;;;;;;;;;19.30;1.00;;;;;;5145658;27;19923;-81
2023/05/17 10:54:02;;;;;;;;;;;18.30;1.00;;;;;;5149276;27;19927;-82
2023/05/17 10:56:31;;;;;;;;;;;17.90;1.00;;;;;;5148487;27;20365;-81
2023/05/17 10:59:23;;;;;;;;;;;17.40;1.00;;;;;;5123665;27;19970;-80
2023/05/17 11:01:53;;;;;;;;;;;16.90;1.00;;;;;;5138534;27;19965;-80
2023/05/17 11:04:25;;;;;;;;;;;17.40;1.00;;;;;;5130004;27;20554;-81
2023/05/17 11:06:51;;;;;;;;;;;17.90;1.00;;;;;;5130355;27;19934;-80
2023/05/17 11:09:20;;;;;;;;;;;18.30;1.00;;;;;;5162663;27;19941;-80
2023/05/17 11:12:05;;;;;;;;;;;17.90;1.00;;;;;;5151081;27;19964;-80
2023/05/17 11:14:43;;;;;;;;;;;17.70;1.00;;;;;;5148870;27;19973;-81
2023/05/17 11:17:19;;;;;;;;;;;18.80;1.00;;;;;;5153740;27;19927;-80
2023/05/17 11:19:57;;;;;;;;;;;20.40;1.00;;;;;;5159787;27;19934;-80
2023/05/17 11:22:23;;;;;;;;;;;21.40;1.00;;;;;;5144524;27;20730;-80
2023/05/17 11:24:52;;;;;;;;;;;21.50;1.00;;;;;;5142854;27;19938;-82
2023/05/17 11:27:18;;;;;;;;;;;21.70;1.00;;;;;;5144540;27;20382;-81
2023/05/17 11:29:47;;;;;;;;;;;21.70;1.00;;;;;;5127378;27;20025;-82
2023/05/17 11:32:12;;;;;;;;;;;20.80;1.00;;;;;;5135078;27;19926;-81
2023/05/17 11:34:38;;;;;;;;;;;19.60;1.00;;;;;;5143407;27;19923;-81
2023/05/17 11:37:08;;;;;;;;;;;18.90;1.00;;;;;;5151837;27;19930;-81
2023/05/17 11:39:34;;;;;;;;;;;19.10;1.00;;;;;;5148635;27;19927;-81
2023/05/17 11:42:00;;;;;;;;;;;19.90;1.00;;;;;;5140826;27;19927;-82
2023/05/17 11:44:30;;;;;;;;;;;20.00;1.00;;;;;;5146376;27;20137;-81
2023/05/17 11:47:01;;;;;;;;;;;20.20;1.00;;;;;;5153547;27;19980;-82
2023/05/17 11:49:27;;;;;;;;;;;21.30;1.00;;;;;;5142757;27;19934;-82
2023/05/17 11:51:52;;;;;;;;;;;21.70;1.00;;;;;;5146927;27;19927;-82
2023/05/17 11:54:20;;;;;;;;;;;21.90;1.00;;;;;;5160237;27;19946;-82
2023/05/17 11:56:46;;;;;;;;;;;22.70;1.00;;;;;;5168309;27;19934;-82
2023/05/17 11:59:17;;;;;;;;;;;23.30;1.00;;;;;;5135593;27;19927;-82
2023/05/17 12:01:47;;;;;;;;;;;24.20;1.00;;;;;;5148720;27;20299;-82
2023/05/17 12:04:13;;;;;;;;;;;24.60;1.00;;;;;;5148444;27;19927;-82
2023/05/17 12:06:39;;;;;;;;;;;23.80;1.00;;;;;;5147205;27;19937;-82
2023/05/17 12:09:09;;;;;;;;;;;22.70;1.00;;;;;;5148734;27;20402;-82
2023/05/17 12:11:35;;;;;;;;;;;21.80;1.00;;;;;;5153894;27;19922;-82
2023/05/17 12:14:01;;;;;;;;;;;20.80;1.00;;;;;;5173410;27;19931;-82
2023/05/17 12:16:28;;;;;;;;;;;20.00;1.00;;;;;;5143589;27;20014;-82
2023/05/17 12:18:54;;;;;;;;;;;19.90;1.00;;;;;;5154600;27;19971;-81
2023/05/17 12:21:20;;;;;;;;;;;20.20;1.00;;;;;;5143170;27;19926;-81
2023/05/17 12:23:49;;;;;;;;;;;20.80;1.00;;;;;;5154745;27;20014;-82
2023/05/17 12:26:15;;;;;;;;;;;21.60;1.00;;;;;;5168065;27;19923;-82
2023/05/17 12:28:41;;;;;;;;;;;21.30;1.00;;;;;;5129197;27;19997;-82
2023/05/17 12:31:09;;;;;;;;;;;20.30;1.00;;;;;;5151049;27;19970;-82
2023/05/17 12:33:38;;;;;;;;;;;19.60;1.00;;;;;;5163078;27;19923;-81
2023/05/17 12:36:03;;;;;;;;;;;20.40;1.00;;;;;;5140678;27;19923;-81
2023/05/17 12:38:31;;;;;;;;;;;21.70;1.00;;;;;;5155661;27;19923;-82
2023/05/17 12:40:59;;;;;;;;;;;23.10;1.00;;;;;;5121669;27;19927;-82
2023/05/17 12:43:25;;;;;;;;;;;23.60;1.00;;;;;;5134277;27;19947;-82
2023/05/17 12:45:51;;;;;;;;;;;22.40;1.00;;;;;;5126296;27;20010;-79
2023/05/17 12:48:17;;;;;;;;;;;21.80;1.00;;;;;;5117661;27;19923;-80
2023/05/17 12:50:47;;;;;;;;;;;22.10;1.00;;;;;;5161551;27;19923;-80
2023/05/17 12:53:13;;;;;;;;;;;22.50;1.00;;;;;;5111886;27;19966;-81
2023/05/17 12:55:39;;;;;;;;;;;23.10;1.00;;;;;;5148447;27;20019;-79
2023/05/17 12:58:05;;;;;;;;;;;23.40;1.00;;;;;;5126515;27;20360;-80
2023/05/17 13:00:30;;;;;;;;;;;23.70;1.00;;;;;;5165642;27;19933;-80
2023/05/17 13:02:56;;;;;;;;;;;23.50;1.00;;;;;;5145081;27;19927;-81
2023/05/17 13:05:22;;;;;;;;;;;23.60;1.00;;;;;;5147566;27;19923;-80
2023/05/17 13:07:47;;;;;;;;;;;23.60;1.00;;;;;;5159882;27;19927;-81
2023/05/17 13:10:27;;;;;;;;;;;23.80;1.00;;;;;;5143270;27;20031;-82
2023/05/17 13:12:56;;;;;;;;;;;23.90;1.00;;;;;;5153155;27;19990;-81
2023/05/17 13:15:26;;;;;;;;;;;23.40;1.00;;;;;;5126871;27;19927;-81
2023/05/17 13:17:52;;;;;;;;;;;23.80;1.00;;;;;;5158404;27;19929;-81
2023/05/17 13:20:17;;;;;;;;;;;24.30;1.00;;;;;;5108957;27;19930;-81
2023/05/17 13:22:47;;;;;;;;;;;24.60;1.00;;;;;;5153599;27;19931;-81
2023/05/17 13:25:12;;;;;;;;;;;23.90;1.00;;;;;;5147747;27;19934;-82
2023/05/17 13:27:43;;;;;;;;;;;23.60;1.00;;;;;;5138839;27;19923;-81
2023/05/17 13:30:10;;;;;;;;;;;24.00;1.00;;;;;;5129073;27;20010;-81
2023/05/17 13:32:35;;;;;;;;;;;24.80;1.00;;;;;;5166868;27;19941;-81
2023/05/17 13:35:01;;;;;;;;;;;25.10;1.00;;;;;;5165099;27;19930;-82
2023/05/17 13:37:27;;;;;;;;;;;25.00;1.00;;;;;;5146931;27;19927;-82
2023/05/17 13:39:54;;;;;;;;;;;25.30;1.00;;;;;;5171560;27;19927;-82
2023/05/17 13:42:20;;;;;;;;;;;24.10;1.00;;;;;;5161079;27;20286;-82
2023/05/17 13:44:46;;;;;;;;;;;22.80;1.00;;;;;;5144710;27;19937;-82
2023/05/17 13:47:11;;;;;;;;;;;21.70;1.00;;;;;;5150295;27;20175;-82
2023/05/17 13:49:37;;;;;;;;;;;21.80;1.00;;;;;;5129700;27;19931;-83
2023/05/17 13:52:03;;;;;;;;;;;22.60;1.00;;;;;;5129818;27;20369;-83
2023/05/17 13:54:28;;;;;;;;;;;23.80;1.00;;;;;;5143087;27;20014;-82
2023/05/17 13:56:56;;;;;;;;;;;24.50;1.00;;;;;;5168140;27;19923;-82
2023/05/17 13:59:21;;;;;;;;;;;24.90;1.00;;;;;;5141211;27;19927;-83
2023/05/17 14:01:47;;;;;;;;;;;23.80;1.00;;;;;;5138467;27;19926;-82
2023/05/17 14:04:12;;;;;;;;;;;22.40;1.00;;;;;;5145893;27;20365;-83
2023/05/17 14:06:38;;;;;;;;;;;21.20;1.00;;;;;;5163500;27;20122;-82
2023/05/17 14:09:05;;;;;;;;;;;20.30;1.00;;;;;;5140013;27;19930;-83
2023/05/17 14:11:30;;;;;;;;;;;19.50;1.00;;;;;;5140431;27;19938;-82
2023/05/17 14:13:56;;;;;;;;;;;19.20;1.00;;;;;;5140772;27;20022;-81
2023/05/17 14:16:21;;;;;;;;;;;19.60;1.00;;;;;;5146223;27;19929;-82
2023/05/17 14:18:47;;;;;;;;;;;20.40;1.00;;;;;;5136451;27;19969;-81
2023/05/17 14:21:13;;;;;;;;;;;21.60;1.00;;;;;;5159268;27;19927;-81
2023/05/17 14:23:38;;;;;;;;;;;21.20;1.00;;;;;;5127289;27;20328;-81
2023/05/17 14:26:06;;;;;;;;;;;20.20;1.00;;;;;;5168222;27;19988;-81
2023/05/17 14:28:32;;;;;;;;;;;19.90;1.00;;;;;;5149744;27;19949;-81